Time;durP1;ratioP1;P1;durP2;ratioP2;P2;SDS_P1;SDS_P2;PMS_P1;PMS_P2;Temp;Humidity;BMP_temperature;BMP_pressure;BME280_temperature;BME280_humidity;BME280_pressure;Samples;Min_cycle;Max_cycle;Signal;HPM_P1;HPM_P2
2022/05/21 00:00:29;;;;;;;43.35;19.67;;;10.60;98.10;;;;;;4810918;29;20047;-72
2022/05/21 00:02:55;;;;;;;38.40;19.55;;;10.70;98.30;;;;;;4816543;29;20532;-72
2022/05/21 00:05:23;;;;;;;42.65;20.35;;;10.80;98.40;;;;;;4804135;29;20138;-72
2022/05/21 00:07:49;;;;;;;36.25;21.08;;;10.90;98.50;;;;;;4841234;29;20526;-72
2022/05/21 00:10:16;;;;;;;37.75;19.33;;;11.00;98.50;;;;;;4819774;29;20043;-72
2022/05/21 00:12:43;;;;;;;38.95;20.65;;;11.10;98.40;;;;;;4804070;29;20412;-72
2022/05/21 00:15:11;;;;;;;33.05;19.35;;;11.10;98.40;;;;;;4789558;29;20135;-72
2022/05/21 00:17:37;;;;;;;36.63;18.90;;;11.20;98.50;;;;;;4816246;29;20446;-72
2022/05/21 00:20:03;;;;;;;32.87;18.63;;;11.20;98.40;;;;;;4808045;29;20293;-72
2022/05/21 00:22:29;;;;;;;33.38;17.60;;;11.30;98.40;;;;;;4818837;29;20647;-72
2022/05/21 00:24:55;;;;;;;29.33;17.30;;;11.30;98.30;;;;;;4784594;29;20316;-72
2022/05/21 00:27:20;;;;;;;34.07;16.67;;;11.30;98.40;;;;;;4838014;29;20088;-72
2022/05/21 00:29:46;;;;;;;26.70;15.77;;;11.30;98.20;;;;;;4787502;29;20066;-72
2022/05/21 00:32:12;;;;;;;32.10;14.93;;;11.40;98.30;;;;;;4806485;29;20043;-72
2022/05/21 00:34:38;;;;;;;25.60;15.60;;;11.40;98.20;;;;;;4785751;29;20168;-72
2022/05/21 00:37:04;;;;;;;28.33;14.83;;;11.50;98.30;;;;;;4785882;29;20051;-73
2022/05/21 00:39:30;;;;;;;29.73;15.07;;;11.60;98.30;;;;;;4815085;29;20376;-73
2022/05/21 00:42:03;;;;;;;29.27;14.57;;;11.60;98.20;;;;;;4801831;29;20785;-72
2022/05/21 00:44:28;;;;;;;24.50;13.57;;;11.60;97.90;;;;;;4816641;29;20393;-72
2022/05/21 00:46:54;;;;;;;28.17;15.40;;;11.60;97.70;;;;;;4806670;29;20336;-72
2022/05/21 00:49:31;;;;;;;30.30;13.93;;;11.60;97.60;;;;;;4836040;29;20046;-72
2022/05/21 00:52:07;;;;;;;30.50;15.10;;;11.60;97.50;;;;;;4830944;29;20046;-72
2022/05/21 00:54:39;;;;;;;27.33;14.77;;;11.70;97.30;;;;;;4807418;29;20360;-72
2022/05/21 00:57:10;;;;;;;29.03;15.83;;;11.70;97.30;;;;;;4815528;29;20295;-72
2022/05/21 00:59:49;;;;;;;31.37;14.70;;;11.70;97.20;;;;;;4837730;29;20306;-73
2022/05/21 01:02:25;;;;;;;27.17;15.03;;;11.70;97.30;;;;;;4809018;29;20295;-72
2022/05/21 01:04:51;;;;;;;29.30;14.50;;;11.80;97.10;;;;;;4837020;29;20309;-73
2022/05/21 01:07:17;;;;;;;24.73;12.73;;;11.80;97.20;;;;;;4827213;29;20302;-73
2022/05/21 01:09:50;;;;;;;32.57;15.30;;;11.80;97.20;;;;;;4815498;29;20058;-73
2022/05/21 01:12:16;;;;;;;27.33;15.13;;;11.80;97.20;;;;;;4817291;29;20406;-73
2022/05/21 01:14:42;;;;;;;30.77;15.90;;;11.80;97.20;;;;;;4818668;29;20304;-73
2022/05/21 01:17:08;;;;;;;30.77;13.70;;;11.80;97.10;;;;;;4787451;29;20328;-73
2022/05/21 01:19:57;;;;;;;29.40;14.73;;;11.90;97.20;;;;;;4818438;29;20454;-73
2022/05/21 01:22:43;;;;;;;33.57;14.87;;;11.90;97.00;;;;;;4804406;29;20343;-73
2022/05/21 01:25:11;;;;;;;28.83;12.90;;;11.90;97.10;;;;;;4830179;29;20364;-73
2022/05/21 01:27:37;;;;;;;30.17;12.50;;;11.90;97.00;;;;;;4807244;29;20311;-73
2022/05/21 01:30:07;;;;;;;27.53;11.57;;;11.90;97.20;;;;;;4794846;29;20738;-73
2022/05/21 01:32:34;;;;;;;27.57;10.43;;;12.00;97.10;;;;;;4788882;29;20340;-73
2022/05/21 01:35:00;;;;;;;24.23;10.17;;;12.00;96.90;;;;;;4835010;29;20833;-73
2022/05/21 01:37:26;;;;;;;29.53;10.43;;;12.00;96.60;;;;;;4787715;29;20292;-73
2022/05/21 01:39:52;;;;;;;28.83;10.00;;;12.00;96.40;;;;;;4810728;29;20372;-73
2022/05/21 01:42:18;;;;;;;21.43;9.47;;;12.10;96.30;;;;;;4785835;29;20407;-73
2022/05/21 01:44:46;;;;;;;28.97;9.97;;;12.10;95.90;;;;;;4819669;29;20042;-73
2022/05/21 01:47:14;;;;;;;28.10;9.30;;;12.10;96.00;;;;;;4833203;29;20055;-73
2022/05/21 01:49:41;;;;;;;34.00;9.00;;;12.10;96.10;;;;;;4790267;29;20334;-73
2022/05/21 01:52:09;;;;;;;24.70;8.43;;;12.10;95.90;;;;;;4786004;29;20319;-73
2022/05/21 01:54:35;;;;;;;28.70;8.53;;;12.10;95.80;;;;;;4789990;29;20299;-73
2022/05/21 01:57:02;;;;;;;27.77;8.93;;;12.10;95.90;;;;;;4819407;29;20836;-73
2022/05/21 01:59:28;;;;;;;33.60;8.30;;;12.10;96.00;;;;;;4822677;29;20703;-73
2022/05/21 02:01:54;;;;;;;27.47;7.23;;;12.10;95.90;;;;;;4801492;29;20300;-73
2022/05/21 02:04:20;;;;;;;23.43;7.10;;;12.10;95.50;;;;;;4803289;29;20046;-73
2022/05/21 02:06:47;;;;;;;23.67;7.00;;;12.10;95.40;;;;;;4823917;29;20341;-73
2022/05/21 02:09:13;;;;;;;26.77;6.57;;;12.10;95.40;;;;;;4826756;29;20287;-73
2022/05/21 02:11:39;;;;;;;26.07;6.97;;;12.10;95.30;;;;;;4813590;29;20379;-74
2022/05/21 02:14:07;;;;;;;28.97;6.07;;;12.10;95.00;;;;;;4836912;29;20318;-73
2022/05/21 02:16:34;;;;;;;21.40;5.77;;;12.10;94.90;;;;;;4796894;29;20308;-73
2022/05/21 02:19:02;;;;;;;24.50;6.70;;;12.10;94.70;;;;;;4817627;29;20292;-73
2022/05/21 02:21:31;;;;;;;25.17;6.20;;;12.10;94.70;;;;;;4816596;29;20433;-73
2022/05/21 02:23:57;;;;;;;22.00;6.77;;;12.10;94.50;;;;;;4823352;29;20723;-73
2022/05/21 02:26:24;;;;;;;28.23;5.77;;;12.10;94.40;;;;;;4824597;29;20312;-73
2022/05/21 02:28:50;;;;;;;29.00;6.73;;;12.20;94.50;;;;;;4808200;29;20086;-73
2022/05/21 02:31:16;;;;;;;22.00;5.93;;;12.10;94.50;;;;;;4825716;29;20357;-73
2022/05/21 02:33:41;;;;;;;24.13;5.03;;;12.10;94.60;;;;;;4824492;29;20181;-74
2022/05/21 02:36:08;;;;;;;30.53;5.73;;;12.20;94.70;;;;;;4785195;29;20043;-74
2022/05/21 02:41:18;;;;;;;20.53;5.13;;;12.20;94.00;;;;;;4827773;29;20311;-73
2022/05/21 02:43:46;;;;;;;23.23;4.73;;;12.20;93.80;;;;;;4785550;29;20352;-73
2022/05/21 02:46:13;;;;;;;24.50;5.10;;;12.20;93.90;;;;;;4813958;29;20804;-73
2022/05/21 02:48:40;;;;;;;21.80;5.67;;;12.20;93.90;;;;;;4814170;29;20643;-73
2022/05/21 02:51:07;;;;;;;25.03;5.03;;;12.20;93.90;;;;;;4784868;29;20320;-73
2022/05/21 02:53:32;;;;;;;23.87;5.80;;;12.20;94.10;;;;;;4812444;29;20605;-73
2022/05/21 02:56:09;;;;;;;20.17;5.10;;;12.20;94.10;;;;;;4815010;29;20339;-73
2022/05/21 02:58:36;;;;;;;24.93;5.57;;;12.20;93.90;;;;;;4807264;29;20035;-74
2022/05/21 03:01:03;;;;;;;25.20;5.33;;;12.20;93.70;;;;;;4814815;29;20464;-73
2022/05/21 03:03:29;;;;;;;27.17;5.30;;;12.20;93.80;;;;;;4817700;29;20828;-73
2022/05/21 03:05:54;;;;;;;24.83;5.50;;;12.20;93.90;;;;;;4804293;29;20310;-73
2022/05/21 03:11:04;;;;;;;23.03;5.13;;;12.20;93.70;;;;;;4834739;29;20088;-73
2022/05/21 03:13:34;;;;;;;15.17;4.73;;;12.20;94.00;;;;;;4799274;29;20863;-73
2022/05/21 03:16:00;;;;;;;20.97;4.23;;;12.20;94.00;;;;;;4829711;29;20051;-73
2022/05/21 03:18:25;;;;;;;19.30;4.20;;;12.20;93.50;;;;;;4807890;29;20307;-73
2022/05/21 03:20:52;;;;;;;18.77;4.60;;;12.20;93.20;;;;;;4804661;29;20310;-73
2022/05/21 03:23:18;;;;;;;25.43;3.97;;;12.20;93.60;;;;;;4821169;29;20077;-73
2022/05/21 03:25:43;;;;;;;20.83;4.43;;;12.20;93.40;;;;;;4804380;29;20368;-73
2022/05/21 03:28:17;;;;;;;16.40;4.13;;;12.20;93.30;;;;;;4801655;29;20059;-73
2022/05/21 03:30:43;;;;;;;20.07;4.33;;;12.20;93.20;;;;;;4799892;29;20129;-73
2022/05/21 03:33:09;;;;;;;24.60;4.50;;;12.10;93.40;;;;;;4796631;29;20373;-73
2022/05/21 03:35:35;;;;;;;20.40;4.40;;;12.10;93.50;;;;;;4811734;29;20284;-73
2022/05/21 03:38:01;;;;;;;21.67;3.70;;;12.10;93.40;;;;;;4839865;29;20143;-73
2022/05/21 03:40:29;;;;;;;19.33;4.13;;;12.10;93.40;;;;;;4786651;29;20600;-73
2022/05/21 03:42:54;;;;;;;21.30;4.77;;;12.00;93.60;;;;;;4800755;29;20047;-73
2022/05/21 03:45:21;;;;;;;18.63;4.13;;;12.00;93.60;;;;;;4821741;29;20315;-73
2022/05/21 03:47:46;;;;;;;16.33;3.70;;;12.00;93.60;;;;;;4801230;29;20458;-73
2022/05/21 03:50:15;;;;;;;18.23;3.83;;;12.00;93.60;;;;;;4788033;29;20877;-73
2022/05/21 03:52:41;;;;;;;15.40;3.73;;;11.90;93.50;;;;;;4794869;29;20298;-73
2022/05/21 03:55:07;;;;;;;17.30;3.80;;;11.90;93.40;;;;;;4800752;29;20738;-73
2022/05/21 03:57:33;;;;;;;25.83;4.50;;;11.90;93.50;;;;;;4793335;29;20047;-73
2022/05/21 03:59:59;;;;;;;19.23;4.40;;;11.90;93.30;;;;;;4795291;29;20884;-73
2022/05/21 04:02:25;;;;;;;17.50;3.77;;;11.90;93.50;;;;;;4784733;29;20051;-73
2022/05/21 04:04:51;;;;;;;18.37;3.87;;;11.90;93.50;;;;;;4835311;29;20496;-72
2022/05/21 04:07:17;;;;;;;17.07;4.10;;;11.90;93.30;;;;;;4821817;29;20297;-73
2022/05/21 04:09:43;;;;;;;16.90;4.47;;;11.90;93.40;;;;;;4801853;29;20474;-73
2022/05/21 04:12:09;;;;;;;13.13;3.07;;;11.90;93.60;;;;;;4840097;29;20469;-73
2022/05/21 04:14:35;;;;;;;12.73;3.20;;;11.90;93.70;;;;;;4845226;29;20048;-73
2022/05/21 04:17:03;;;;;;;15.37;3.90;;;11.90;93.50;;;;;;4800259;29;20740;-73
2022/05/21 04:19:29;;;;;;;16.33;3.57;;;12.00;93.30;;;;;;4798468;29;20049;-73
2022/05/21 04:21:56;;;;;;;15.80;3.73;;;12.00;92.90;;;;;;4799421;29;20343;-73
2022/05/21 04:24:22;;;;;;;13.83;2.87;;;12.00;92.90;;;;;;4808602;29;20296;-73
2022/05/21 04:26:49;;;;;;;19.07;3.33;;;11.90;92.70;;;;;;4815936;29;20303;-73
2022/05/21 04:29:16;;;;;;;18.23;3.40;;;12.00;92.90;;;;;;4830091;29;20825;-73
2022/05/21 04:31:45;;;;;;;14.27;3.13;;;11.90;92.30;;;;;;4812315;29;20328;-73
2022/05/21 04:34:11;;;;;;;19.87;3.70;;;11.90;92.40;;;;;;4794227;29;20374;-73
2022/05/21 04:36:37;;;;;;;14.20;3.40;;;11.90;92.60;;;;;;4833888;29;20360;-73
2022/05/21 04:39:04;;;;;;;16.77;3.37;;;11.90;92.70;;;;;;4817201;29;20307;-73
2022/05/21 04:41:29;;;;;;;18.67;3.77;;;11.90;92.40;;;;;;4823567;29;20304;-73
2022/05/21 04:43:55;;;;;;;20.47;4.17;;;11.90;92.40;;;;;;4808198;29;20331;-73
2022/05/21 04:46:24;;;;;;;17.87;3.67;;;11.90;92.10;;;;;;4811822;29;20046;-73
2022/05/21 04:48:50;;;;;;;20.07;3.90;;;12.00;92.30;;;;;;4812592;29;20310;-73
2022/05/21 04:51:15;;;;;;;16.93;3.13;;;12.10;92.30;;;;;;4814594;29;20316;-73
2022/05/21 04:53:41;;;;;;;17.10;3.43;;;12.10;92.10;;;;;;4800903;29;20042;-73
2022/05/21 04:56:07;;;;;;;18.93;3.57;;;12.30;91.80;;;;;;4803828;29;20138;-73
2022/05/21 04:58:34;;;;;;;16.23;2.93;;;12.60;92.20;;;;;;4787045;29;20484;-73
2022/05/21 05:01:02;;;;;;;15.03;3.03;;;12.70;90.50;;;;;;4818352;29;20387;-73
2022/05/21 05:03:28;;;;;;;16.20;3.57;;;12.70;90.50;;;;;;4808370;29;20308;-73
2022/05/21 05:05:54;;;;;;;20.10;3.57;;;12.60;89.90;;;;;;4822626;29;20820;-73
2022/05/21 05:08:21;;;;;;;14.90;3.60;;;12.80;90.70;;;;;;4813149;29;20315;-73
2022/05/21 05:10:48;;;;;;;11.60;3.03;;;13.10;89.70;;;;;;4801421;29;20685;-73
2022/05/21 05:13:15;;;;;;;12.53;3.73;;;13.70;89.40;;;;;;4808553;29;20304;-73
2022/05/21 05:15:46;;;;;;;17.20;3.07;;;14.10;85.20;;;;;;4820413;29;20409;-73
2022/05/21 05:18:18;;;;;;;16.10;2.67;;;14.00;83.50;;;;;;4810448;29;20774;-73
2022/05/21 05:20:45;;;;;;;15.57;3.10;;;13.70;84.50;;;;;;4832494;29;20383;-73
2022/05/21 05:23:11;;;;;;;15.93;3.57;;;13.60;85.10;;;;;;4831301;29;20367;-73
2022/05/21 05:25:37;;;;;;;15.80;3.23;;;13.60;85.70;;;;;;4795636;29;20299;-73
2022/05/21 05:28:05;;;;;;;14.80;3.23;;;14.00;85.90;;;;;;4807664;29;20632;-73
2022/05/21 05:30:31;;;;;;;16.73;3.47;;;14.20;83.90;;;;;;4820287;29;20526;-72
2022/05/21 05:32:57;;;;;;;14.47;3.27;;;14.60;83.20;;;;;;4808839;29;20303;-72
2022/05/21 05:35:23;;;;;;;13.53;2.80;;;14.80;81.40;;;;;;4811676;29;20129;-72
2022/05/21 05:37:49;;;;;;;15.17;3.40;;;14.80;81.50;;;;;;4795324;29;20053;-73
2022/05/21 05:40:19;;;;;;;16.60;3.10;;;15.10;80.70;;;;;;4789465;29;20312;-73
2022/05/21 05:42:44;;;;;;;18.10;3.23;;;15.40;80.30;;;;;;4816620;29;20121;-73
2022/05/21 05:45:12;;;;;;;13.07;2.50;;;15.40;79.30;;;;;;4820909;29;20406;-73
2022/05/21 05:47:39;;;;;;;15.80;3.37;;;15.50;79.10;;;;;;4815572;29;20053;-73
2022/05/21 05:50:05;;;;;;;19.57;3.83;;;15.40;78.60;;;;;;4835862;29;20360;-73
2022/05/21 05:52:35;;;;;;;15.17;3.30;;;15.50;78.60;;;;;;4785206;29;20403;-73
2022/05/21 05:55:00;;;;;;;12.37;3.00;;;15.80;77.80;;;;;;4819233;29;20880;-73
2022/05/21 05:57:26;;;;;;;15.57;3.40;;;16.10;77.20;;;;;;4804017;29;20858;-73
2022/05/21 05:59:52;;;;;;;12.27;2.60;;;16.40;75.30;;;;;;4798545;29;20042;-73
2022/05/21 06:05:06;;;;;;;16.77;2.33;;;16.30;74.60;;;;;;4836595;29;20350;-73
2022/05/21 06:07:32;;;;;;;12.03;2.73;;;16.40;74.50;;;;;;4817085;29;20450;-72
2022/05/21 06:10:04;;;;;;;12.47;2.60;;;16.20;72.90;;;;;;4801763;29;20820;-73
2022/05/21 06:12:31;;;;;;;11.47;2.00;;;16.10;73.20;;;;;;4835396;29;20378;-72
2022/05/21 06:14:57;;;;;;;15.03;2.73;;;16.20;73.30;;;;;;4800855;29;20700;-72
2022/05/21 06:17:23;;;;;;;11.30;2.57;;;16.50;73.50;;;;;;4801900;29;20356;-73
2022/05/21 06:19:49;;;;;;;12.87;2.47;;;16.60;72.90;;;;;;4839328;29;20093;-73
2022/05/21 06:22:14;;;;;;;15.33;2.60;;;16.00;73.40;;;;;;4799085;29;20339;-72
2022/05/21 06:24:40;;;;;;;16.03;2.40;;;15.50;74.30;;;;;;4788925;29;20493;-72
2022/05/21 06:27:07;;;;;;;15.83;4.37;;;15.20;75.80;;;;;;4800148;29;20107;-72
2022/05/21 06:29:35;;;;;;;14.13;2.60;;;15.00;75.50;;;;;;4815262;29;20502;-72
2022/05/21 06:32:01;;;;;;;13.30;2.37;;;14.90;75.60;;;;;;4799771;29;20824;-73
2022/05/21 06:34:26;;;;;;;17.27;3.43;;;14.80;76.10;;;;;;4800815;29;20298;-73
2022/05/21 06:36:52;;;;;;;10.93;2.33;;;14.70;77.70;;;;;;4785387;29;20049;-72
2022/05/21 06:39:18;;;;;;;13.57;2.90;;;15.00;76.00;;;;;;4798010;29;20485;-72
2022/05/21 06:41:43;;;;;;;14.30;3.20;;;15.30;74.70;;;;;;4787456;29;20042;-73
2022/05/21 06:44:09;;;;;;;16.47;2.57;;;15.30;75.50;;;;;;4793767;29;20457;-73
2022/05/21 06:46:35;;;;;;;15.37;2.87;;;15.30;75.70;;;;;;4818987;29;20050;-73
2022/05/21 06:49:01;;;;;;;16.53;2.60;;;15.10;75.70;;;;;;4827084;29;20061;-73
2022/05/21 06:51:27;;;;;;;11.10;2.43;;;14.90;76.80;;;;;;4825819;29;20836;-72
2022/05/21 06:53:52;;;;;;;13.47;3.03;;;14.70;74.60;;;;;;4793835;29;20484;-72
2022/05/21 06:56:18;;;;;;;17.13;2.93;;;14.80;75.70;;;;;;4807116;29;20047;-72
2022/05/21 06:58:44;;;;;;;16.40;2.87;;;15.00;76.70;;;;;;4799834;29;20055;-72
2022/05/21 07:01:10;;;;;;;13.23;2.87;;;14.90;76.40;;;;;;4815550;29;20625;-72
2022/05/21 07:03:36;;;;;;;16.43;3.33;;;14.70;75.90;;;;;;4822032;29;20300;-72
2022/05/21 07:08:51;;;;;;;14.93;2.90;;;14.60;76.80;;;;;;4820489;29;20412;-72
2022/05/21 07:11:16;;;;;;;15.83;2.80;;;14.60;76.70;;;;;;4796119;29;20316;-72
2022/05/21 07:13:43;;;;;;;14.70;2.60;;;14.60;77.10;;;;;;4781114;29;20043;-72
2022/05/21 07:16:09;;;;;;;15.40;2.80;;;14.60;77.20;;;;;;4799387;29;20519;-72
2022/05/21 07:18:35;;;;;;;12.80;2.60;;;14.60;77.60;;;;;;4799430;29;20305;-72
2022/05/21 07:21:01;;;;;;;13.07;2.90;;;14.60;77.20;;;;;;4812038;29;20103;-72
2022/05/21 07:23:28;;;;;;;11.83;2.73;;;14.60;76.90;;;;;;4799722;29;20166;-72
2022/05/21 07:25:55;;;;;;;14.43;2.70;;;14.50;76.70;;;;;;4801393;29;20300;-73
2022/05/21 07:28:21;;;;;;;12.97;2.47;;;14.50;76.70;;;;;;4829567;29;20319;-72
2022/05/21 07:30:47;;;;;;;15.97;2.90;;;14.60;76.10;;;;;;4805538;29;20316;-73
2022/05/21 07:33:17;;;;;;;14.83;3.20;;;14.70;76.00;;;;;;4803777;29;20288;-72
2022/05/21 07:35:43;;;;;;;13.60;2.93;;;14.90;76.80;;;;;;4834162;29;20311;-72
2022/05/21 07:38:11;;;;;;;13.60;2.90;;;14.90;75.50;;;;;;4825142;29;20306;-72
2022/05/21 07:40:37;;;;;;;18.80;3.23;;;14.90;75.90;;;;;;4791068;29;20299;-72
2022/05/21 07:43:21;;;;;;;13.93;2.87;;;14.90;76.20;;;;;;4793762;29;20289;-72
2022/05/21 07:45:48;;;;;;;11.37;2.80;;;14.80;76.20;;;;;;4812400;29;20287;-72
2022/05/21 07:48:16;;;;;;;12.83;3.50;;;14.80;76.10;;;;;;4785738;29;20301;-72
2022/05/21 07:50:48;;;;;;;11.13;2.50;;;15.00;76.70;;;;;;4796513;29;20362;-72
2022/05/21 07:53:26;;;;;;;12.63;2.57;;;15.10;74.40;;;;;;4786041;29;20888;-72
2022/05/21 07:55:53;;;;;;;12.53;2.57;;;15.30;74.80;;;;;;4808709;29;20299;-72
2022/05/21 07:58:21;;;;;;;13.47;2.80;;;15.20;74.80;;;;;;4787521;29;20311;-72
2022/05/21 08:00:47;;;;;;;14.37;2.50;;;15.10;74.70;;;;;;4815392;29;20288;-72
2022/05/21 08:03:13;;;;;;;17.20;2.90;;;15.20;74.90;;;;;;4785077;29;20292;-72
2022/05/21 08:05:41;;;;;;;13.83;2.93;;;15.30;74.80;;;;;;4830239;29;20323;-72
2022/05/21 08:08:07;;;;;;;12.30;2.37;;;15.40;73.40;;;;;;4799675;29;20300;-72
2022/05/21 08:10:34;;;;;;;12.93;2.30;;;15.30;73.70;;;;;;4818547;29;20658;-72
2022/05/21 08:13:00;;;;;;;17.03;2.87;;;15.30;73.90;;;;;;4788775;29;20327;-72
2022/05/21 08:15:26;;;;;;;15.93;3.03;;;15.20;73.60;;;;;;4802781;29;20285;-72
2022/05/21 08:17:52;;;;;;;12.93;2.30;;;15.30;75.00;;;;;;4813127;29;20047;-72
2022/05/21 08:20:18;;;;;;;14.73;2.93;;;15.40;73.60;;;;;;4815024;29;20300;-72
2022/05/21 08:28:14;;;;;;;19.50;3.70;;;15.40;74.00;;;;;;4829938;29;20139;-72
2022/05/21 08:30:47;;;;;;;11.93;2.57;;;15.40;72.40;;;;;;4789810;29;20050;-72
2022/05/21 08:33:14;;;;;;;17.17;3.37;;;15.20;72.10;;;;;;4830364;29;20324;-72
2022/05/21 08:35:40;;;;;;;16.97;3.17;;;15.30;73.30;;;;;;4788480;29;20783;-72
2022/05/21 08:38:07;;;;;;;19.07;3.47;;;15.30;71.90;;;;;;4814299;29;20304;-72
2022/05/21 08:40:36;;;;;;;11.97;2.43;;;15.30;73.40;;;;;;4799524;29;20735;-72
2022/05/21 08:43:03;;;;;;;11.67;2.70;;;15.50;74.10;;;;;;4785491;29;20653;-72
2022/05/21 08:45:58;;;;;;;12.00;2.83;;;15.70;71.80;;;;;;4801506;29;20367;-72
2022/05/21 08:48:27;;;;;;;13.83;2.33;;;16.00;70.60;;;;;;4801848;29;20336;-72
2022/05/21 08:50:54;;;;;;;12.97;2.63;;;16.00;71.70;;;;;;4815323;29;20677;-72
2022/05/21 08:53:25;;;;;;;12.93;2.40;;;15.90;70.90;;;;;;4800828;29;20280;-72
2022/05/21 08:55:54;;;;;;;13.73;2.23;;;16.00;72.10;;;;;;4829523;29;20319;-72
2022/05/21 08:58:23;;;;;;;12.70;2.70;;;16.30;72.70;;;;;;4801252;29;20292;-72
2022/05/21 09:00:48;;;;;;;17.07;2.43;;;16.50;71.90;;;;;;4827644;29;20311;-72
2022/05/21 09:03:20;;;;;;;10.20;2.20;;;16.60;71.10;;;;;;4828257;29;20304;-72
2022/05/21 09:06:19;;;;;;;9.17;2.20;;;16.60;70.60;;;;;;4829150;29;20477;-72
2022/05/21 09:09:07;;;;;;;12.30;3.37;;;16.60;68.70;;;;;;4828646;29;20281;-72
2022/05/21 09:11:40;;;;;;;11.27;2.90;;;16.50;68.60;;;;;;4821686;29;20300;-72
2022/05/21 09:14:29;;;;;;;17.53;2.50;;;16.10;68.20;;;;;;4788148;29;20777;-72
2022/05/21 09:16:55;;;;;;;11.20;1.97;;;15.90;70.70;;;;;;4794346;29;20305;-72
2022/05/21 09:19:40;;;;;;;9.63;2.73;;;16.00;72.00;;;;;;4829280;29;20352;-72
2022/05/21 09:22:13;;;;;;;10.02;2.42;;;16.10;71.80;;;;;;4822952;29;20345;-72
2022/05/21 09:24:42;;;;;;;11.93;2.10;;;16.20;71.30;;;;;;4809273;29;20050;-72
2022/05/21 09:27:27;;;;;;;13.20;2.37;;;16.30;71.60;;;;;;4827207;29;20379;-72
2022/05/21 09:30:11;;;;;;;13.20;2.63;;;16.60;70.10;;;;;;4802885;29;20899;-72
2022/05/21 09:32:37;;;;;;;13.83;2.93;;;16.80;70.00;;;;;;4833989;29;20312;-72
2022/05/21 09:35:15;;;;;;;11.70;2.30;;;16.70;69.90;;;;;;4809501;29;20304;-72
2022/05/21 09:37:41;;;;;;;14.27;2.20;;;16.70;69.30;;;;;;4811240;29;20287;-72
2022/05/21 09:40:31;;;;;;;15.50;2.60;;;16.60;68.50;;;;;;4813191;29;20289;-72
2022/05/21 09:45:43;;;;;;;7.93;2.13;;;16.60;70.20;;;;;;4831159;29;20630;-72
2022/05/21 09:48:09;;;;;;;10.50;2.20;;;17.10;70.90;;;;;;4806210;29;20487;-72
2022/05/21 09:50:46;;;;;;;12.13;1.97;;;17.30;67.20;;;;;;4820746;29;20319;-72
2022/05/21 09:53:27;;;;;;;12.53;2.20;;;17.40;67.80;;;;;;4805526;29;20051;-72
2022/05/21 09:56:01;;;;;;;18.33;2.43;;;17.50;68.00;;;;;;4789990;29;20336;-72
2022/05/21 09:58:28;;;;;;;11.07;1.50;;;17.40;65.70;;;;;;4837400;29;20665;-72
2022/05/21 10:00:56;;;;;;;13.40;2.47;;;17.20;66.00;;;;;;4832445;29;20291;-72
2022/05/21 10:03:45;;;;;;;11.07;1.97;;;17.20;67.10;;;;;;4816875;29;20363;-72
2022/05/21 10:06:30;;;;;;;10.17;2.13;;;17.40;65.70;;;;;;4814007;29;20308;-72
2022/05/21 10:12:05;;;;;;;12.23;2.17;;;17.70;67.30;;;;;;4825906;29;20062;-69
2022/05/21 10:14:33;;;;;;;11.13;2.47;;;17.50;64.40;;;;;;4816485;29;20757;-69
2022/05/21 10:17:05;;;;;;;16.90;3.03;;;17.40;66.30;;;;;;4793482;29;20404;-69
2022/05/21 10:19:40;;;;;;;11.00;2.33;;;17.30;66.20;;;;;;4822651;29;20377;-69
2022/05/21 10:22:10;;;;;;;;;;;17.20;65.90;;;;;;4821400;29;21011;-69
2022/05/21 10:25:07;;;;;;;11.87;2.20;;;17.10;65.90;;;;;;4820466;29;20359;-69
2022/05/21 10:27:39;;;;;;;12.60;2.57;;;16.80;65.40;;;;;;4811193;29;20639;-69
2022/05/21 10:30:08;;;;;;;14.10;2.93;;;16.70;67.10;;;;;;4824540;29;20882;-69
2022/05/21 10:32:48;;;;;;;12.43;2.73;;;16.60;67.60;;;;;;4824716;29;20348;-69
2022/05/21 10:35:57;;;;;;;15.53;2.57;;;16.60;67.90;;;;;;4829660;29;20341;-69
2022/05/21 10:38:54;;;;;;;8.20;1.80;;;16.70;68.30;;;;;;4818472;29;20293;-69
2022/05/21 10:41:38;;;;;;;15.93;2.73;;;16.90;67.10;;;;;;4808829;29;20299;-69
2022/05/21 10:44:35;;;;;;;10.73;2.20;;;16.80;67.10;;;;;;4810366;29;20335;-69
2022/05/21 10:47:38;;;;;;;14.47;2.83;;;16.70;67.20;;;;;;4800693;29;20827;-71
2022/05/21 10:50:21;;;;;;;12.97;2.17;;;16.40;66.80;;;;;;4817104;29;20289;-71
2022/05/21 10:53:11;;;;;;;11.37;2.13;;;16.40;68.50;;;;;;4798958;29;20934;-71
2022/05/21 10:56:01;;;;;;;12.93;2.73;;;16.60;68.10;;;;;;4806449;29;20358;-71
2022/05/21 10:59:04;;;;;;;10.03;2.20;;;16.80;68.50;;;;;;4826508;29;20287;-71
2022/05/21 11:01:53;;;;;;;13.87;2.67;;;17.00;66.70;;;;;;4794501;29;20291;-71
2022/05/21 11:04:19;;;;;;;14.10;2.90;;;17.00;67.30;;;;;;4824341;29;20331;-71
2022/05/21 11:07:01;;;;;;;14.17;2.23;;;17.20;67.40;;;;;;4814069;29;20852;-71
2022/05/21 11:09:48;;;;;;;10.47;2.00;;;17.40;67.60;;;;;;4804764;29;20549;-71
2022/05/21 11:12:43;;;;;;;11.40;1.97;;;17.60;65.50;;;;;;4819307;29;20320;-71
2022/05/21 11:15:16;;;;;;;14.60;2.60;;;17.70;65.90;;;;;;4788892;29;20311;-72
2022/05/21 11:17:54;;;;;;;13.00;2.40;;;17.70;64.60;;;;;;4815704;29;20039;-72
2022/05/21 11:20:33;;;;;;;11.87;2.30;;;17.50;64.00;;;;;;4802315;29;20654;-71
2022/05/21 11:23:15;;;;;;;10.73;2.53;;;17.40;64.70;;;;;;4810342;29;20299;-71
2022/05/21 11:25:47;;;;;;;12.70;2.57;;;17.20;65.70;;;;;;4817771;29;20740;-71
2022/05/21 11:28:42;;;;;;;9.63;2.13;;;17.30;66.20;;;;;;4824302;29;20364;-71
2022/05/21 11:39:42;;;;;;;12.90;2.33;;;17.60;64.40;;;;;;4847857;29;20349;-72
2022/05/21 11:42:08;;;;;;;7.77;1.67;;;17.70;64.70;;;;;;4818311;29;20296;-72
2022/05/21 11:44:56;;;;;;;9.07;1.63;;;17.80;62.30;;;;;;4819379;29;20082;-71
2022/05/21 11:47:25;;;;;;;9.43;1.50;;;17.90;61.50;;;;;;4806874;29;20049;-72
2022/05/21 11:50:03;;;;;;;8.87;1.83;;;17.90;62.90;;;;;;4803546;29;20292;-72
2022/05/21 11:52:35;;;;;;;9.83;1.70;;;18.10;63.90;;;;;;4800138;29;20405;-72
2022/05/21 11:55:10;;;;;;;7.57;1.83;;;18.10;63.60;;;;;;4818823;29;20297;-72
2022/05/21 11:57:37;;;;;;;8.73;1.35;;;18.10;62.90;;;;;;4820052;29;20789;-72
2022/05/21 12:00:28;;;;;;;7.97;1.10;;;17.90;60.90;;;;;;4824789;29;20047;-72
2022/05/21 12:02:54;;;;;;;11.23;1.63;;;17.90;62.60;;;;;;4816162;29;20780;-71
2022/05/21 12:05:41;;;;;;;6.97;1.30;;;18.10;62.40;;;;;;4826555;29;20054;-71
2022/05/21 12:08:36;;;;;;;7.50;1.70;;;18.20;61.40;;;;;;4819058;29;20058;-71
2022/05/21 12:11:32;;;;;;;9.07;1.87;;;18.20;59.20;;;;;;4786863;29;20308;-71
2022/05/21 12:14:05;;;;;;;8.50;1.73;;;18.20;61.60;;;;;;4815800;29;20288;-71
2022/05/21 12:16:31;;;;;;;10.30;1.90;;;18.20;60.70;;;;;;4806947;29;20357;-71
2022/05/21 12:18:59;;;;;;;9.53;2.37;;;18.20;60.40;;;;;;4808626;29;20288;-71
2022/05/21 12:21:28;;;;;;;9.27;2.33;;;18.10;60.90;;;;;;4815367;29;20046;-71
2022/05/21 12:23:55;;;;;;;8.00;1.70;;;18.10;61.90;;;;;;4811644;29;20051;-71
2022/05/21 12:26:30;;;;;;;11.53;1.90;;;18.20;61.50;;;;;;4800623;29;20296;-71
2022/05/21 12:28:56;;;;;;;10.57;2.33;;;18.10;61.20;;;;;;4818523;29;20085;-72
2022/05/21 12:31:37;;;;;;;13.43;2.33;;;18.10;62.60;;;;;;4802745;29;20086;-72
2022/05/21 12:34:29;;;;;;;10.83;2.03;;;18.20;61.80;;;;;;4813689;29;20054;-72
2022/05/21 12:37:15;;;;;;;6.63;1.63;;;18.30;62.00;;;;;;4805750;29;20789;-72
2022/05/21 12:39:53;;;;;;;12.47;2.60;;;18.40;61.30;;;;;;4780532;29;20076;-72
2022/05/21 12:42:35;;;;;;;10.43;1.83;;;18.10;62.10;;;;;;4822863;29;20322;-72
2022/05/21 12:45:02;;;;;;;9.27;2.50;;;18.10;62.40;;;;;;4830989;29;20300;-72
2022/05/21 12:47:34;;;;;;;10.97;2.03;;;18.20;63.10;;;;;;4820649;29;20301;-72
2022/05/21 12:50:19;;;;;;;10.47;2.10;;;18.10;62.10;;;;;;4838830;29;20364;-72
2022/05/21 12:52:54;;;;;;;12.63;2.88;;;18.00;60.70;;;;;;4815873;29;20134;-72
2022/05/21 12:55:25;;;;;;;;;;;18.20;62.00;;;;;;4804024;29;20114;-72
2022/05/21 12:57:57;;;;;;;12.87;2.63;;;18.30;61.80;;;;;;4828881;29;19921;-71
2022/05/21 13:00:28;;;;;;;14.40;3.40;;;18.30;61.90;;;;;;4816071;29;20311;-71
2022/05/21 13:02:55;;;;;;;14.10;2.97;;;18.30;61.30;;;;;;4821549;29;20417;-71
2022/05/21 13:05:25;;;;;;;13.47;2.70;;;18.10;61.90;;;;;;4815049;29;20304;-71
2022/05/21 13:07:53;;;;;;;12.40;3.33;;;18.00;62.90;;;;;;4816144;29;20393;-71
2022/05/21 13:10:22;;;;;;;12.87;2.87;;;18.10;64.50;;;;;;4817161;29;20307;-70
2022/05/21 13:12:55;;;;;;;13.90;3.07;;;18.00;63.00;;;;;;4819972;29;20357;-70
2022/05/21 13:15:46;;;;;;;12.30;2.50;;;18.10;63.30;;;;;;4825281;29;20138;-70
2022/05/21 13:18:21;;;;;;;10.10;2.30;;;18.00;61.00;;;;;;4814797;29;20055;-71
2022/05/21 13:20:46;;;;;;;;;;;18.00;61.10;;;;;;4827908;29;20489;-71
2022/05/21 13:23:19;;;;;;;10.90;2.37;;;17.90;62.10;;;;;;4800704;29;19996;-71
2022/05/21 13:25:53;;;;;;;11.37;2.53;;;18.00;62.80;;;;;;4810196;29;20470;-71